Wysox, Pennsylvania
Current Conditions -  °F | °C
As of 2:20 AM on Thursday 23 Oct 2014 (Local Time) from KBGM Reporting Station
Overcast Overcast  
Wind Chill: 36°   Ceiling: 2200
Heat Index: 43°   Visibility: 10mi
Dew Point: 40°   Wind: 15mph
Humidity: 89%   Direction: 350°N
Pressure: 29.95"   Gusts: NA
Location:  41.78°N, 76.4°W
Report Text: KBGM 230620Z AUTO 35013KT 10SM FEW009 OVC022 06/04 A2995 RMK AO2 T00610044
Loading
Personal Weather Stations






























Interactive Weather Map
Tropical Storm Tracking
New forecast layout! Learn more

10-Day Weather Forecast

Advertisements
Track Severe Weather on mobile